Time;durP1;ratioP1;P1;durP2;ratioP2;P2;SDS_P1;SDS_P2;PMS_P1;PMS_P2;Temp;Humidity;BMP_temperature;BMP_pressure;BME280_temperature;BME280_humidity;BME280_pressure;Samples;Min_cycle;Max_cycle;Signal;HPM_P1;HPM_P2
2023/06/24 00:01:51;;;;;;;18.40;13.90;;;18.40;99.90;;;;;;5013007;28;20107;-59
2023/06/24 00:04:18;;;;;;;19.08;13.63;;;18.40;99.90;;;;;;4998409;28;20033;-58
2023/06/24 00:06:44;;;;;;;16.60;12.98;;;18.40;99.90;;;;;;5009618;28;20048;-59
2023/06/24 00:09:10;;;;;;;18.38;15.07;;;18.40;99.90;;;;;;5011874;28;20021;-55
2023/06/24 00:11:36;;;;;;;18.15;14.38;;;18.40;99.90;;;;;;5012775;28;20076;-56
2023/06/24 00:14:02;;;;;;;16.35;13.32;;;18.30;99.90;;;;;;5012820;28;20022;-61
2023/06/24 00:16:28;;;;;;;15.35;12.95;;;18.30;99.90;;;;;;5017267;28;20463;-60
2023/06/24 00:19:00;;;;;;;16.08;13.75;;;18.30;99.90;;;;;;5012490;28;20048;-59
2023/06/24 00:21:32;;;;;;;16.48;13.63;;;18.30;99.90;;;;;;5012897;28;20492;-60
2023/06/24 00:23:59;;;;;;;24.02;16.42;;;18.30;99.90;;;;;;5016946;28;20030;-61
2023/06/24 00:26:27;;;;;;;22.73;16.35;;;18.20;99.90;;;;;;5018106;28;20061;-60
2023/06/24 00:28:53;;;;;;;21.88;15.82;;;18.30;99.90;;;;;;5012196;28;20041;-59
2023/06/24 00:31:20;;;;;;;21.20;15.43;;;18.30;99.90;;;;;;5014567;28;20084;-60
2023/06/24 00:33:47;;;;;;;22.33;16.70;;;18.30;99.90;;;;;;4996067;28;20087;-60
2023/06/24 00:36:13;;;;;;;21.55;16.40;;;18.30;99.90;;;;;;5014324;28;20026;-60
2023/06/24 00:38:39;;;;;;;20.45;14.25;;;18.30;99.90;;;;;;4995796;28;20030;-61
2023/06/24 00:41:07;;;;;;;21.38;14.73;;;18.30;99.90;;;;;;5013730;28;20129;-60
2023/06/24 00:43:33;;;;;;;17.33;13.43;;;18.30;99.90;;;;;;5013502;28;20379;-59
2023/06/24 00:45:59;;;;;;;16.42;13.93;;;18.30;99.90;;;;;;5005038;28;20679;-61
2023/06/24 00:48:24;;;;;;;17.70;13.57;;;18.20;99.90;;;;;;4994111;28;20037;-61
2023/06/24 00:50:51;;;;;;;17.15;14.25;;;18.20;99.90;;;;;;5013648;28;20540;-59
2023/06/24 00:53:17;;;;;;;14.00;12.27;;;18.20;99.90;;;;;;5012489;28;20482;-60
2023/06/24 00:55:45;;;;;;;19.42;13.77;;;18.20;99.90;;;;;;4996803;28;20564;-61
2023/06/24 00:58:15;;;;;;;16.02;13.85;;;18.20;99.90;;;;;;5013459;28;20030;-60
2023/06/24 01:00:45;;;;;;;14.90;11.95;;;18.20;99.90;;;;;;5012550;28;20096;-62
2023/06/24 01:03:16;;;;;;;14.07;12.32;;;18.10;99.90;;;;;;4994119;28;20554;-60
2023/06/24 01:05:43;;;;;;;16.25;11.57;;;18.10;99.90;;;;;;5012714;28;20417;-60
2023/06/24 01:08:09;;;;;;;14.60;12.25;;;18.10;99.90;;;;;;5012896;28;20129;-61
2023/06/24 01:10:35;;;;;;;16.63;12.23;;;18.00;99.90;;;;;;5012619;28;20404;-61
2023/06/24 01:13:02;;;;;;;15.10;12.52;;;18.00;99.90;;;;;;5015093;28;20030;-60
2023/06/24 01:15:28;;;;;;;15.48;11.55;;;18.00;99.90;;;;;;4999147;28;20567;-60
2023/06/24 01:18:21;;;;;;;17.08;12.15;;;17.90;99.90;;;;;;5004913;28;20046;-60
2023/06/24 01:21:03;;;;;;;15.70;12.18;;;17.90;99.90;;;;;;5014343;28;20050;-61
2023/06/24 01:23:46;;;;;;;14.57;11.60;;;17.80;99.90;;;;;;5015553;28;20022;-60
2023/06/24 01:26:51;;;;;;;15.38;12.05;;;17.80;99.90;;;;;;4993426;28;20030;-60
2023/06/24 01:29:44;;;;;;;20.13;12.18;;;17.80;99.90;;;;;;4926024;29;20042;-60
2023/06/24 01:32:16;;;;;;;15.25;11.57;;;17.80;99.90;;;;;;4930336;29;20055;-59
2023/06/24 01:34:57;;;;;;;14.27;11.18;;;17.80;99.90;;;;;;4986849;28;20042;-58
2023/06/24 01:37:31;;;;;;;15.48;11.38;;;17.70;99.90;;;;;;5015650;28;20465;-56
2023/06/24 01:40:12;;;;;;;14.23;12.07;;;17.70;99.90;;;;;;5015221;28;20030;-59
2023/06/24 01:42:43;;;;;;;12.68;10.15;;;17.70;99.90;;;;;;5010944;28;20034;-59
2023/06/24 01:45:32;;;;;;;12.77;10.05;;;17.60;99.90;;;;;;5013429;28;20096;-59
2023/06/24 01:48:28;;;;;;;14.35;10.68;;;17.60;99.90;;;;;;5014526;28;20036;-55
2023/06/24 01:50:59;;;;;;;12.00;9.90;;;17.50;99.90;;;;;;5003283;28;20049;-57
2023/06/24 01:53:28;;;;;;;12.68;10.05;;;17.50;99.90;;;;;;4997168;28;20041;-58
2023/06/24 01:55:58;;;;;;;13.15;9.57;;;17.50;99.90;;;;;;4999995;28;20120;-59
2023/06/24 01:58:25;;;;;;;16.08;10.18;;;17.50;99.90;;;;;;4996774;28;20516;-58
2023/06/24 02:00:52;;;;;;;12.60;10.00;;;17.40;99.90;;;;;;4997604;28;20071;-59
2023/06/24 02:03:20;;;;;;;12.02;8.85;;;17.40;99.90;;;;;;4999714;28;20393;-56
2023/06/24 02:05:48;;;;;;;12.13;9.80;;;17.40;99.90;;;;;;4997633;28;20030;-59
2023/06/24 02:08:15;;;;;;;9.55;8.20;;;17.40;99.90;;;;;;5017428;28;20123;-59
2023/06/24 02:10:42;;;;;;;11.90;8.93;;;17.30;99.90;;;;;;4994003;28;20050;-59
2023/06/24 02:13:09;;;;;;;10.32;8.23;;;17.30;99.90;;;;;;5018321;28;20025;-59
2023/06/24 02:15:38;;;;;;;12.50;9.52;;;17.30;99.90;;;;;;4993729;28;20057;-58
2023/06/24 02:18:06;;;;;;;11.63;8.20;;;17.20;99.90;;;;;;5010972;28;20076;-58
2023/06/24 02:20:32;;;;;;;10.50;8.43;;;17.20;99.90;;;;;;5000304;28;20080;-57
2023/06/24 02:22:59;;;;;;;11.75;8.55;;;17.20;99.90;;;;;;5014856;28;20044;-59
2023/06/24 02:25:26;;;;;;;11.32;8.30;;;17.10;99.90;;;;;;5017168;28;20041;-59
2023/06/24 02:27:55;;;;;;;26.75;8.90;;;17.10;99.90;;;;;;5000086;28;20029;-59
2023/06/24 02:30:23;;;;;;;12.13;8.93;;;17.00;99.90;;;;;;5018035;28;20051;-58
2023/06/24 02:32:48;;;;;;;16.33;9.07;;;17.00;99.90;;;;;;5016373;28;20050;-59
2023/06/24 02:35:16;;;;;;;12.55;9.45;;;16.90;99.90;;;;;;5014913;28;20034;-59
2023/06/24 02:37:42;;;;;;;9.80;8.13;;;16.90;99.90;;;;;;5015920;28;20068;-59
2023/06/24 02:40:09;;;;;;;11.85;8.75;;;16.90;99.90;;;;;;5014395;28;20084;-56
2023/06/24 02:42:35;;;;;;;14.60;9.88;;;16.80;99.90;;;;;;5014088;28;20056;-59
2023/06/24 02:45:03;;;;;;;9.90;7.78;;;16.80;99.90;;;;;;5015787;28;20494;-58
2023/06/24 02:47:32;;;;;;;10.70;8.57;;;16.70;99.90;;;;;;5013823;28;20505;-59
2023/06/24 02:49:59;;;;;;;15.30;9.30;;;16.70;99.90;;;;;;5006439;28;20786;-57
2023/06/24 02:52:28;;;;;;;10.98;8.27;;;16.60;99.90;;;;;;5013551;28;20038;-58
2023/06/24 02:54:58;;;;;;;13.30;9.30;;;16.60;99.90;;;;;;4996262;28;20034;-58
2023/06/24 02:57:45;;;;;;;11.48;8.30;;;16.60;99.90;;;;;;5013214;28;20623;-59
2023/06/24 03:00:43;;;;;;;10.73;8.35;;;16.60;99.90;;;;;;5012982;28;20393;-58
2023/06/24 03:03:09;;;;;;;11.23;8.10;;;16.60;99.90;;;;;;5016501;28;20025;-59
2023/06/24 03:05:44;;;;;;;10.10;8.50;;;16.50;99.90;;;;;;4995471;28;20035;-58
2023/06/24 03:08:10;;;;;;;12.15;8.10;;;16.50;99.90;;;;;;4995785;28;20030;-60
2023/06/24 03:10:37;;;;;;;10.18;7.40;;;16.50;99.90;;;;;;4992370;28;20045;-60
2023/06/24 03:13:06;;;;;;;11.65;8.63;;;16.50;99.90;;;;;;4996522;28;20057;-60
2023/06/24 03:15:41;;;;;;;8.85;7.72;;;16.50;99.90;;;;;;4997548;28;20547;-60
2023/06/24 03:18:07;;;;;;;11.05;8.80;;;16.50;99.90;;;;;;4999961;28;20029;-60
2023/06/24 03:20:38;;;;;;;13.30;8.15;;;16.50;99.90;;;;;;5017707;28;20112;-60
2023/06/24 03:23:07;;;;;;;13.43;8.43;;;16.50;99.90;;;;;;4995403;28;20035;-57
2023/06/24 03:25:34;;;;;;;12.85;8.50;;;16.50;99.90;;;;;;4998571;28;20568;-58
2023/06/24 03:28:00;;;;;;;11.20;8.63;;;16.50;99.90;;;;;;5010320;28;20037;-60
2023/06/24 03:30:27;;;;;;;10.40;8.43;;;16.60;99.90;;;;;;5004955;28;20026;-60
2023/06/24 03:32:55;;;;;;;12.23;8.95;;;16.60;99.90;;;;;;4995428;28;20041;-60
2023/06/24 03:35:22;;;;;;;11.25;8.82;;;16.60;99.90;;;;;;5017446;28;20063;-57
2023/06/24 03:37:48;;;;;;;12.32;9.55;;;16.60;99.90;;;;;;4991239;28;20038;-60
2023/06/24 03:40:14;;;;;;;11.60;8.52;;;16.70;99.90;;;;;;5019652;28;20039;-60
2023/06/24 03:42:40;;;;;;;13.15;8.25;;;16.70;99.90;;;;;;5000033;28;20038;-59
2023/06/24 03:45:06;;;;;;;10.57;7.93;;;16.80;99.90;;;;;;5013058;28;20033;-59
2023/06/24 03:47:32;;;;;;;12.43;9.30;;;16.80;99.90;;;;;;4998707;28;20029;-59
2023/06/24 03:49:59;;;;;;;11.98;9.05;;;16.70;99.90;;;;;;4988710;28;20026;-60
2023/06/24 03:52:25;;;;;;;11.02;8.60;;;16.70;99.90;;;;;;4998921;28;20420;-58
2023/06/24 03:54:51;;;;;;;12.93;10.02;;;16.70;99.90;;;;;;4993602;28;20029;-60
2023/06/24 03:57:17;;;;;;;12.82;10.45;;;16.70;99.90;;;;;;4997789;28;20052;-57
2023/06/24 03:59:43;;;;;;;14.32;9.75;;;16.80;99.90;;;;;;5002520;28;20061;-58
2023/06/24 04:02:09;;;;;;;11.00;9.40;;;16.70;99.90;;;;;;5012737;28;20674;-57
2023/06/24 04:04:36;;;;;;;12.93;10.50;;;16.80;99.90;;;;;;4997824;28;20129;-52
2023/06/24 04:07:05;;;;;;;13.25;9.88;;;16.80;99.90;;;;;;4997132;28;20033;-58
2023/06/24 04:09:33;;;;;;;14.55;9.80;;;16.90;99.90;;;;;;4997588;28;20824;-58
2023/06/24 04:11:59;;;;;;;12.55;10.50;;;16.90;99.90;;;;;;5013678;28;20125;-58
2023/06/24 04:14:32;;;;;;;16.20;10.70;;;16.90;99.90;;;;;;4996460;28;20851;-56
2023/06/24 04:16:58;;;;;;;14.18;10.52;;;17.00;99.90;;;;;;5003747;28;20132;-58
2023/06/24 04:19:24;;;;;;;13.88;10.82;;;17.00;99.90;;;;;;4996304;28;20052;-59
2023/06/24 04:21:50;;;;;;;14.85;10.82;;;17.10;99.90;;;;;;4996389;28;20037;-58
2023/06/24 04:24:15;;;;;;;13.82;9.82;;;17.10;99.90;;;;;;5014557;28;20037;-58
2023/06/24 04:26:41;;;;;;;17.92;11.43;;;17.10;99.90;;;;;;5013977;28;20056;-59
2023/06/24 04:29:07;;;;;;;14.13;10.93;;;17.20;99.90;;;;;;4996481;28;20029;-56
2023/06/24 04:31:33;;;;;;;16.13;11.07;;;17.20;99.90;;;;;;5014450;28;20029;-57
2023/06/24 04:33:59;;;;;;;13.63;10.38;;;17.20;99.90;;;;;;5014651;28;20678;-58
2023/06/24 04:36:24;;;;;;;15.63;9.98;;;17.30;99.90;;;;;;5014264;28;20048;-58
2023/06/24 04:38:50;;;;;;;14.57;10.45;;;17.30;99.90;;;;;;4994689;28;20128;-59
2023/06/24 04:41:18;;;;;;;12.57;10.95;;;17.40;99.90;;;;;;4996424;28;20033;-56
2023/06/24 04:43:44;;;;;;;15.02;10.27;;;17.40;99.90;;;;;;5013640;28;20132;-56
2023/06/24 04:46:10;;;;;;;13.80;10.95;;;17.40;99.90;;;;;;5012449;28;20046;-58
2023/06/24 04:48:35;;;;;;;13.90;11.10;;;17.50;99.90;;;;;;5013376;28;20087;-59
2023/06/24 04:51:01;;;;;;;16.48;11.32;;;17.60;99.90;;;;;;5017699;28;20030;-56
2023/06/24 04:53:27;;;;;;;14.82;11.30;;;17.70;99.90;;;;;;5017588;28;20148;-57
2023/06/24 04:55:53;;;;;;;16.13;11.60;;;17.70;99.90;;;;;;5016188;28;20029;-56
2023/06/24 04:58:18;;;;;;;14.02;11.20;;;17.80;99.90;;;;;;5017956;28;20120;-56
2023/06/24 05:00:44;;;;;;;18.50;10.93;;;17.80;99.90;;;;;;5017541;28;20037;-58
2023/06/24 05:03:10;;;;;;;16.90;10.98;;;17.90;99.90;;;;;;5018064;28;20112;-55
2023/06/24 05:05:36;;;;;;;13.93;9.88;;;18.00;99.90;;;;;;5015232;28;20583;-59
2023/06/24 05:08:01;;;;;;;12.82;10.45;;;18.00;99.90;;;;;;5017330;28;20635;-56
2023/06/24 05:10:27;;;;;;;15.20;11.27;;;18.10;99.90;;;;;;5017832;28;20088;-59
2023/06/24 05:12:53;;;;;;;12.68;10.10;;;18.20;99.90;;;;;;5015979;28;20034;-60
2023/06/24 05:15:19;;;;;;;16.65;11.80;;;18.20;99.90;;;;;;5017728;28;20033;-61
2023/06/24 05:17:44;;;;;;;13.07;10.43;;;18.30;99.90;;;;;;4999416;28;20034;-60
2023/06/24 05:20:10;;;;;;;15.02;11.07;;;18.40;99.90;;;;;;5017640;28;20041;-57
2023/06/24 05:22:36;;;;;;;14.52;11.13;;;18.50;99.90;;;;;;4999578;28;20033;-60
2023/06/24 05:25:02;;;;;;;14.48;10.57;;;18.60;99.90;;;;;;5017337;28;20038;-59
2023/06/24 05:27:28;;;;;;;13.10;10.27;;;18.70;99.90;;;;;;5017093;28;20033;-57
2023/06/24 05:29:54;;;;;;;15.73;10.90;;;18.80;99.90;;;;;;5017403;28;20447;-59
2023/06/24 05:32:20;;;;;;;15.00;10.38;;;18.80;99.90;;;;;;5015299;28;20061;-61
2023/06/24 05:34:46;;;;;;;14.10;10.20;;;18.90;99.90;;;;;;5016919;28;20120;-61
2023/06/24 05:37:12;;;;;;;13.60;10.13;;;19.10;99.90;;;;;;5017432;28;20168;-60
2023/06/24 05:39:38;;;;;;;13.05;9.60;;;19.20;99.90;;;;;;5015304;28;20116;-61
2023/06/24 05:42:04;;;;;;;13.77;10.25;;;19.30;99.90;;;;;;5017048;28;20080;-60
2023/06/24 05:44:29;;;;;;;14.10;10.18;;;19.30;99.90;;;;;;5016723;28;20045;-60
2023/06/24 05:46:55;;;;;;;11.05;9.20;;;19.30;99.90;;;;;;5015816;28;20042;-61
2023/06/24 05:49:21;;;;;;;17.45;9.85;;;19.30;99.90;;;;;;5014870;28;20034;-60
2023/06/24 05:51:47;;;;;;;10.23;8.73;;;19.20;99.90;;;;;;5016761;28;20034;-57
2023/06/24 05:54:12;;;;;;;11.77;8.82;;;19.20;99.90;;;;;;5016208;28;20033;-60
2023/06/24 05:56:38;;;;;;;14.23;9.18;;;19.20;99.90;;;;;;5016466;28;20611;-60
2023/06/24 05:59:04;;;;;;;11.02;9.15;;;19.20;99.90;;;;;;5019511;28;20025;-60
2023/06/24 06:01:30;;;;;;;13.07;10.13;;;19.20;99.90;;;;;;5016352;28;20037;-59
2023/06/24 06:03:56;;;;;;;11.95;9.68;;;19.20;99.90;;;;;;5016455;28;20571;-60
2023/06/24 06:06:22;;;;;;;13.43;9.77;;;19.10;99.90;;;;;;4996998;28;20141;-60
2023/06/24 06:08:47;;;;;;;10.55;8.32;;;19.10;99.90;;;;;;5016486;28;20040;-58
2023/06/24 06:11:13;;;;;;;12.60;9.73;;;19.10;99.90;;;;;;5016496;28;20037;-58
2023/06/24 06:13:39;;;;;;;12.73;8.40;;;19.20;99.90;;;;;;5016275;28;20120;-59
2023/06/24 06:16:05;;;;;;;12.50;9.57;;;19.20;99.90;;;;;;5016606;28;20041;-59
2023/06/24 06:18:31;;;;;;;13.45;9.82;;;19.20;99.90;;;;;;5016022;28;20041;-57
2023/06/24 06:20:57;;;;;;;10.55;8.75;;;19.30;99.90;;;;;;5016547;28;20034;-56
2023/06/24 06:23:22;;;;;;;9.93;8.02;;;19.30;99.90;;;;;;5016352;28;20033;-60
2023/06/24 06:25:48;;;;;;;15.63;9.10;;;19.30;99.90;;;;;;5014619;28;20800;-59
2023/06/24 06:28:14;;;;;;;15.32;11.02;;;19.40;99.90;;;;;;5015898;28;20041;-58
2023/06/24 06:30:39;;;;;;;16.00;10.05;;;19.50;99.90;;;;;;5016376;28;20065;-59
2023/06/24 06:33:05;;;;;;;13.18;9.80;;;19.70;99.90;;;;;;4998332;28;20034;-59
2023/06/24 06:35:31;;;;;;;18.45;9.77;;;19.80;99.90;;;;;;5016513;28;20033;-59
2023/06/24 06:37:58;;;;;;;12.38;9.55;;;19.90;99.90;;;;;;5013721;28;20188;-58
2023/06/24 06:40:24;;;;;;;12.00;9.07;;;20.00;99.90;;;;;;5016195;28;20180;-58
2023/06/24 06:42:50;;;;;;;11.13;9.05;;;20.10;99.90;;;;;;5014716;28;20033;-59
2023/06/24 06:45:16;;;;;;;11.13;8.48;;;20.10;99.90;;;;;;5016149;28;20080;-59
2023/06/24 06:47:41;;;;;;;12.23;8.65;;;20.30;99.90;;;;;;5015392;28;20067;-59
2023/06/24 06:50:08;;;;;;;13.43;9.80;;;20.30;99.90;;;;;;5014759;28;20030;-58
2023/06/24 06:52:34;;;;;;;14.98;9.95;;;20.40;99.90;;;;;;5015941;28;20037;-59
2023/06/24 06:55:00;;;;;;;16.40;9.20;;;20.50;99.90;;;;;;5016005;28;20034;-58
2023/06/24 06:57:26;;;;;;;11.88;9.23;;;20.50;99.90;;;;;;4997819;28;20495;-55
2023/06/24 06:59:52;;;;;;;11.32;9.00;;;20.50;99.90;;;;;;5013808;28;20037;-59
2023/06/24 07:02:18;;;;;;;9.82;8.43;;;20.60;99.90;;;;;;5014691;28;20045;-60
2023/06/24 07:04:44;;;;;;;11.25;8.55;;;20.60;99.90;;;;;;5015201;28;20041;-60
2023/06/24 07:07:11;;;;;;;11.63;8.70;;;20.60;99.90;;;;;;5015146;28;20045;-57
2023/06/24 07:09:37;;;;;;;11.10;8.02;;;20.60;99.90;;;;;;5015408;28;20033;-60
2023/06/24 07:12:03;;;;;;;13.13;7.93;;;20.70;99.90;;;;;;5015311;28;20532;-59
2023/06/24 07:14:29;;;;;;;10.48;7.85;;;20.70;99.90;;;;;;5015079;28;20049;-55
2023/06/24 07:16:55;;;;;;;16.30;8.38;;;20.70;99.90;;;;;;5013463;28;20029;-59
2023/06/24 07:19:21;;;;;;;13.75;8.45;;;20.60;99.90;;;;;;5015881;28;20112;-58
2023/06/24 07:21:46;;;;;;;10.63;7.90;;;20.60;99.90;;;;;;5015294;28;20540;-56
2023/06/24 07:24:12;;;;;;;9.88;7.50;;;20.60;99.90;;;;;;5015703;28;20131;-59
2023/06/24 07:26:38;;;;;;;12.18;7.93;;;20.70;99.90;;;;;;5014518;28;20037;-60
2023/06/24 07:29:07;;;;;;;9.25;7.43;;;20.80;99.90;;;;;;5013450;28;20044;-57
2023/06/24 07:31:33;;;;;;;9.77;6.80;;;20.80;99.90;;;;;;5014353;28;20796;-57
2023/06/24 07:33:58;;;;;;;9.35;7.25;;;20.80;99.90;;;;;;5016259;28;20645;-59
2023/06/24 07:36:24;;;;;;;8.73;6.10;;;20.90;99.90;;;;;;5013098;28;20033;-61
2023/06/24 07:38:50;;;;;;;11.32;7.15;;;20.90;99.90;;;;;;5013823;28;20416;-60
2023/06/24 07:41:16;;;;;;;10.20;7.55;;;20.80;99.90;;;;;;4997798;28;20141;-59
2023/06/24 07:43:42;;;;;;;8.32;6.20;;;20.90;99.90;;;;;;5014928;28;20061;-58
2023/06/24 07:46:08;;;;;;;8.98;6.43;;;20.90;99.90;;;;;;5015503;28;20045;-57
2023/06/24 07:48:33;;;;;;;8.65;6.10;;;21.00;99.90;;;;;;5014084;28;20148;-59
2023/06/24 07:50:59;;;;;;;8.25;6.72;;;21.10;99.90;;;;;;5016096;28;20022;-56
2023/06/24 07:53:25;;;;;;;7.47;6.35;;;21.20;99.90;;;;;;5009173;28;20747;-59
2023/06/24 07:55:51;;;;;;;6.72;5.40;;;21.20;99.90;;;;;;5014170;28;20087;-59
2023/06/24 07:58:19;;;;;;;7.07;5.97;;;21.40;99.90;;;;;;5015263;28;20450;-54
2023/06/24 08:00:45;;;;;;;8.38;6.35;;;21.50;99.90;;;;;;5012785;28;20180;-57
2023/06/24 08:03:12;;;;;;;7.38;5.68;;;21.60;99.90;;;;;;5015733;28;20487;-59
2023/06/24 08:05:39;;;;;;;5.95;5.35;;;21.60;99.90;;;;;;5013576;28;20093;-60
2023/06/24 08:08:05;;;;;;;5.90;5.10;;;21.60;99.90;;;;;;5014683;28;20740;-59
2023/06/24 08:10:31;;;;;;;6.90;5.68;;;21.60;99.90;;;;;;4994655;28;20037;-57
2023/06/24 08:12:57;;;;;;;7.25;5.05;;;21.60;99.90;;;;;;5013283;28;20033;-59
2023/06/24 08:15:23;;;;;;;8.30;5.60;;;21.60;99.90;;;;;;5016147;28;20481;-60
2023/06/24 08:17:53;;;;;;;9.15;5.30;;;21.60;99.90;;;;;;5012997;28;20527;-60
2023/06/24 08:20:23;;;;;;;6.35;5.75;;;21.50;99.90;;;;;;5016240;28;20048;-60
2023/06/24 08:22:49;;;;;;;7.13;5.85;;;21.40;99.90;;;;;;5010664;28;20111;-58
2023/06/24 08:25:15;;;;;;;13.60;5.43;;;21.50;99.90;;;;;;5019555;28;20041;-55
2023/06/24 08:27:42;;;;;;;6.70;5.22;;;21.50;99.90;;;;;;5016116;28;20040;-59
2023/06/24 08:30:09;;;;;;;4.95;4.55;;;21.60;99.90;;;;;;5017518;28;20049;-58
2023/06/24 08:32:35;;;;;;;7.20;5.00;;;21.60;99.90;;;;;;5019774;28;20116;-58
2023/06/24 08:35:00;;;;;;;10.43;5.35;;;21.70;99.90;;;;;;5017056;28;20105;-57
2023/06/24 08:37:27;;;;;;;7.18;5.13;;;21.70;99.90;;;;;;5016623;28;20026;-60
2023/06/24 08:39:53;;;;;;;8.65;4.93;;;21.70;99.90;;;;;;5018624;28;20084;-55
2023/06/24 08:42:19;;;;;;;6.05;5.28;;;21.80;99.90;;;;;;5019417;28;20513;-58
2023/06/24 08:44:44;;;;;;;6.22;4.25;;;21.80;99.90;;;;;;5017168;28;20064;-59
2023/06/24 08:47:14;;;;;;;5.38;4.18;;;21.90;99.90;;;;;;5016083;28;20401;-57
2023/06/24 08:49:47;;;;;;;8.75;4.78;;;21.90;99.90;;;;;;5001055;28;20025;-59
2023/06/24 08:52:15;;;;;;;9.30;4.68;;;21.90;99.90;;;;;;5018885;28;20025;-58
2023/06/24 08:54:44;;;;;;;6.32;4.22;;;21.90;99.90;;;;;;5017391;28;20056;-57
2023/06/24 08:57:14;;;;;;;6.22;4.72;;;21.90;99.90;;;;;;5018866;28;20075;-56
2023/06/24 08:59:42;;;;;;;6.55;4.13;;;21.90;99.90;;;;;;5016575;28;20018;-57
2023/06/24 09:02:08;;;;;;;5.20;4.70;;;21.90;99.90;;;;;;5019877;28;20103;-58
2023/06/24 09:04:34;;;;;;;4.95;3.60;;;22.00;99.90;;;;;;5015218;28;20038;-60
2023/06/24 09:07:00;;;;;;;5.75;4.40;;;22.10;99.90;;;;;;5015268;28;20178;-56
2023/06/24 09:09:28;;;;;;;5.75;4.63;;;22.10;99.90;;;;;;5011178;28;20061;-59
2023/06/24 09:12:03;;;;;;;4.57;4.03;;;22.10;99.90;;;;;;5015046;28;20394;-60
2023/06/24 09:14:30;;;;;;;6.53;4.50;;;22.10;99.90;;;;;;5018185;28;20082;-59
2023/06/24 09:16:58;;;;;;;5.32;4.13;;;22.10;99.90;;;;;;5017372;28;20037;-59
2023/06/24 09:19:29;;;;;;;4.90;4.07;;;22.20;99.90;;;;;;5017679;28;20029;-58
2023/06/24 09:22:05;;;;;;;4.88;4.22;;;22.30;99.90;;;;;;5015931;28;20040;-59
2023/06/24 09:24:35;;;;;;;4.70;4.20;;;22.40;99.90;;;;;;5012316;28;20086;-56
2023/06/24 09:27:03;;;;;;;4.57;4.15;;;22.40;99.90;;;;;;5015754;28;20038;-57
2023/06/24 09:29:33;;;;;;;4.93;3.97;;;22.40;99.90;;;;;;5018888;28;20040;-59
2023/06/24 09:31:59;;;;;;;4.93;4.43;;;22.40;99.90;;;;;;5016939;28;20569;-57
2023/06/24 09:34:28;;;;;;;6.00;4.57;;;22.50;99.90;;;;;;5017819;28;20491;-59
2023/06/24 09:36:58;;;;;;;5.13;4.18;;;22.50;99.90;;;;;;5016413;28;20501;-59
2023/06/24 09:39:29;;;;;;;6.72;4.28;;;22.50;99.90;;;;;;5015456;28;20034;-54
2023/06/24 09:42:00;;;;;;;4.85;4.43;;;22.50;99.90;;;;;;5015073;28;20430;-56
2023/06/24 09:44:27;;;;;;;9.32;4.32;;;22.60;99.90;;;;;;5018898;28;20490;-59
2023/06/24 09:46:54;;;;;;;5.88;4.25;;;22.70;99.90;;;;;;5013490;28;20116;-56
2023/06/24 09:49:20;;;;;;;6.15;4.10;;;22.80;99.90;;;;;;5017189;28;20117;-59
2023/06/24 09:51:47;;;;;;;5.72;3.90;;;22.80;99.90;;;;;;5015405;28;20133;-59
2023/06/24 09:54:15;;;;;;;4.10;3.75;;;22.80;99.90;;;;;;5016863;28;20396;-58
2023/06/24 09:56:46;;;;;;;4.53;3.83;;;22.80;99.70;;;;;;5015196;28;20110;-58
2023/06/24 09:59:13;;;;;;;4.32;3.75;;;22.80;99.90;;;;;;5001316;28;20049;-57
2023/06/24 10:01:41;;;;;;;4.68;3.92;;;22.90;99.90;;;;;;4999395;28;20030;-60
2023/06/24 10:04:07;;;;;;;9.80;5.50;;;22.80;99.50;;;;;;5016163;28;20033;-58
2023/06/24 10:06:34;;;;;;;5.47;4.30;;;22.80;99.90;;;;;;5016250;28;20068;-60
2023/06/24 10:09:01;;;;;;;4.90;4.20;;;22.90;99.90;;;;;;5016218;28;20069;-60
2023/06/24 10:11:27;;;;;;;5.88;3.67;;;22.80;99.90;;;;;;5016375;28;20069;-59
2023/06/24 10:13:54;;;;;;;5.45;4.70;;;22.90;99.50;;;;;;5013852;28;20046;-59
2023/06/24 10:16:20;;;;;;;6.63;4.03;;;22.90;99.90;;;;;;5016375;28;20777;-60
2023/06/24 10:18:46;;;;;;;8.60;4.57;;;22.90;99.90;;;;;;5015861;28;20072;-57
2023/06/24 10:21:14;;;;;;;4.30;3.72;;;23.00;99.80;;;;;;5013330;28;20033;-59
2023/06/24 10:23:58;;;;;;;5.03;4.07;;;23.00;98.80;;;;;;5014207;28;20041;-59
2023/06/24 10:26:28;;;;;;;6.70;4.72;;;23.10;98.60;;;;;;5013438;28;20038;-59
2023/06/24 10:29:17;;;;;;;6.63;5.15;;;23.20;98.50;;;;;;5014890;28;20034;-57
2023/06/24 10:31:49;;;;;;;5.63;4.53;;;23.30;99.90;;;;;;5011233;28;20032;-59
2023/06/24 10:34:23;;;;;;;7.55;4.18;;;23.50;98.40;;;;;;5015769;28;20026;-58
2023/06/24 10:36:55;;;;;;;5.32;4.05;;;23.60;97.30;;;;;;5012597;28;20037;-59
2023/06/24 10:39:48;;;;;;;5.18;4.07;;;23.80;96.50;;;;;;5017478;28;20099;-61
2023/06/24 10:42:26;;;;;;;6.07;4.18;;;24.10;96.60;;;;;;5017552;28;20120;-60
2023/06/24 10:44:54;;;;;;;5.72;3.70;;;24.70;96.10;;;;;;5013123;28;20061;-61
2023/06/24 10:47:22;;;;;;;4.72;3.63;;;25.40;93.40;;;;;;5015012;28;20041;-60
2023/06/24 10:49:48;;;;;;;6.55;3.88;;;25.60;92.30;;;;;;5016068;28;20033;-60
2023/06/24 10:52:14;;;;;;;5.47;3.40;;;25.70;87.00;;;;;;5014217;28;20660;-65
2023/06/24 10:54:41;;;;;;;6.32;3.08;;;25.70;91.30;;;;;;5016219;28;20118;-61
2023/06/24 10:57:08;;;;;;;5.38;3.50;;;25.90;90.30;;;;;;5012283;28;20069;-61
2023/06/24 10:59:49;;;;;;;4.10;3.70;;;26.20;89.80;;;;;;5015230;28;20029;-61
2023/06/24 11:02:17;;;;;;;4.80;4.30;;;26.60;87.00;;;;;;5013547;28;20501;-60
2023/06/24 11:04:54;;;;;;;4.15;3.58;;;26.70;85.00;;;;;;5013418;28;20419;-61
2023/06/24 11:07:25;;;;;;;7.05;3.75;;;26.30;86.90;;;;;;4997343;28;20590;-61
2023/06/24 11:09:52;;;;;;;6.05;3.92;;;25.90;88.20;;;;;;5013887;28;20136;-61
2023/06/24 11:12:19;;;;;;;4.88;4.10;;;25.50;90.20;;;;;;5015417;28;20498;-61
2023/06/24 11:14:45;;;;;;;5.05;3.67;;;25.20;90.40;;;;;;5014921;28;20409;-61
2023/06/24 11:17:11;;;;;;;3.60;3.00;;;24.90;90.30;;;;;;5015589;28;20105;-62
2023/06/24 11:19:39;;;;;;;13.32;3.83;;;24.80;89.10;;;;;;5014240;28;20104;-62
2023/06/24 11:22:06;;;;;;;4.25;3.00;;;24.60;89.70;;;;;;5015367;28;20033;-63
2023/06/24 11:24:33;;;;;;;3.28;2.75;;;24.50;90.50;;;;;;5012859;28;20092;-62
2023/06/24 11:26:59;;;;;;;4.70;3.13;;;24.40;88.00;;;;;;5012235;28;20034;-61
2023/06/24 11:29:28;;;;;;;3.95;3.17;;;24.40;90.00;;;;;;5016397;28;20513;-61
2023/06/24 11:31:54;;;;;;;3.25;2.70;;;24.30;91.90;;;;;;5013225;28;20049;-62
2023/06/24 11:34:21;;;;;;;4.60;3.83;;;24.30;89.20;;;;;;5016442;28;20034;-62
2023/06/24 11:36:48;;;;;;;4.07;3.38;;;24.30;90.60;;;;;;5010709;28;20033;-61
2023/06/24 11:39:27;;;;;;;4.25;3.60;;;24.20;87.80;;;;;;5015836;28;20059;-62
2023/06/24 11:41:57;;;;;;;6.20;3.30;;;24.20;90.50;;;;;;5014433;28;20041;-62
2023/06/24 11:44:26;;;;;;;6.28;4.85;;;24.20;89.90;;;;;;5009377;28;20061;-60
2023/06/24 11:46:52;;;;;;;3.58;3.00;;;24.20;90.00;;;;;;5013668;28;20049;-61
2023/06/24 11:49:19;;;;;;;4.40;3.20;;;24.30;87.60;;;;;;5015355;28;20036;-61
2023/06/24 11:51:48;;;;;;;5.15;3.75;;;24.30;90.50;;;;;;5013817;28;20036;-62
2023/06/24 11:54:15;;;;;;;4.18;3.20;;;24.30;90.10;;;;;;5016423;28;20036;-61
2023/06/24 11:56:43;;;;;;;11.52;3.28;;;24.40;89.50;;;;;;5012140;28;20046;-61
2023/06/24 11:59:17;;;;;;;5.03;3.45;;;24.40;86.30;;;;;;4994832;28;20036;-61
2023/06/24 12:01:44;;;;;;;5.05;3.35;;;24.40;88.90;;;;;;5010195;28;20128;-66
2023/06/24 12:04:15;;;;;;;3.83;3.38;;;24.40;83.60;;;;;;5013632;28;20038;-63
2023/06/24 12:06:41;;;;;;;4.03;2.58;;;24.30;89.60;;;;;;4996704;28;20794;-61
2023/06/24 12:09:09;;;;;;;4.25;2.92;;;24.40;90.30;;;;;;5012865;28;20053;-61
2023/06/24 12:11:35;;;;;;;4.20;3.10;;;24.40;89.40;;;;;;5012562;28;20154;-61
2023/06/24 12:14:01;;;;;;;4.93;3.03;;;24.50;86.60;;;;;;5014533;28;20025;-59
2023/06/24 12:16:27;;;;;;;4.80;3.40;;;24.60;85.20;;;;;;5014065;28;20051;-60
2023/06/24 12:18:53;;;;;;;8.10;3.20;;;24.60;80.50;;;;;;5011888;28;20152;-61
2023/06/24 12:21:19;;;;;;;4.75;3.20;;;24.70;85.80;;;;;;5014729;28;20038;-61
2023/06/24 12:23:45;;;;;;;5.15;3.55;;;24.70;84.80;;;;;;5011623;28;20045;-61
2023/06/24 12:26:12;;;;;;;3.38;2.83;;;24.80;84.70;;;;;;5014498;28;20041;-61
2023/06/24 12:28:38;;;;;;;5.85;3.20;;;24.70;87.80;;;;;;5013503;28;20033;-62
2023/06/24 12:31:04;;;;;;;3.40;3.10;;;24.60;87.20;;;;;;5014689;28;20041;-62
2023/06/24 12:33:30;;;;;;;3.55;3.22;;;24.50;83.70;;;;;;5013626;28;20036;-62
2023/06/24 12:35:56;;;;;;;3.97;3.30;;;24.50;85.60;;;;;;5012233;28;20034;-61
2023/06/24 12:38:22;;;;;;;6.75;3.60;;;24.70;84.90;;;;;;5014701;28;20123;-60
2023/06/24 12:40:48;;;;;;;3.92;3.53;;;24.70;86.10;;;;;;5013969;28;20044;-62
2023/06/24 12:43:14;;;;;;;3.72;3.08;;;24.80;84.70;;;;;;5014520;28;20073;-62